Lewistown, Montana
Current Conditions -  °F | °C
As of 4:54 PM on Monday 22 Dec 2014 (Local Time) from KLWT Reporting Station
Overcast Overcast  
Wind Chill: -3°   Ceiling: 5000
Heat Index:   Visibility: 10mi
Dew Point: -5°   Wind: 8mph
Humidity: 66%   Direction: 260°W
Pressure: 29.97"   Gusts: NA
Location:  47.07°N, 109.42°W
Report Text: KLWT 222354Z AUTO 26007KT 10SM OVC050 01/M05 A2997 RMK AO2 SLP173 T00061050 10033 20006 53031
Loading
Personal Weather Stations






























Interactive Weather Map New forecast layout! Learn more

10-Day Weather Forecast

Advertisements
Track Severe Weather on mobile